createdAt,value
2023-04-16T00:01:44.513Z,13.91
2023-04-16T00:04:13.216Z,13.59
2023-04-16T00:06:41.361Z,13.43
2023-04-16T00:09:09.210Z,13.54
2023-04-16T00:11:39.410Z,13.66
2023-04-16T00:14:07.034Z,13.50
2023-04-16T00:16:34.680Z,13.50
2023-04-16T00:19:02.719Z,13.38
2023-04-16T00:21:31.235Z,13.69
2023-04-16T00:23:59.187Z,13.11
2023-04-16T00:26:27.191Z,12.70
2023-04-16T00:28:54.969Z,12.92
2023-04-16T00:31:30.712Z,12.81
2023-04-16T00:33:59.746Z,12.71
2023-04-16T00:36:28.218Z,12.72
2023-04-16T00:38:57.169Z,12.78
2023-04-16T00:41:25.020Z,12.72
2023-04-16T00:43:52.942Z,13.07
2023-04-16T00:46:23.472Z,13.24
2023-04-16T00:48:53.147Z,12.98
2023-04-16T00:51:21.689Z,12.66
2023-04-16T00:53:49.604Z,12.74
2023-04-16T00:56:18.258Z,12.64
2023-04-16T00:58:45.849Z,12.47
2023-04-16T01:01:17.018Z,12.47
2023-04-16T01:03:48.023Z,12.52
2023-04-16T01:06:18.814Z,12.26
2023-04-16T01:08:47.590Z,12.15
2023-04-16T01:11:16.002Z,12.17
2023-04-16T01:13:43.747Z,12.22
2023-04-16T01:16:13.013Z,12.21
2023-04-16T01:18:40.941Z,12.00
2023-04-16T01:21:09.570Z,11.90
2023-04-16T01:23:37.469Z,11.89
2023-04-16T01:26:05.185Z,12.11
2023-04-16T01:28:34.804Z,12.26
2023-04-16T01:31:02.597Z,12.20
2023-04-16T01:33:46.212Z,12.45
2023-04-16T01:36:13.755Z,12.22
2023-04-16T01:38:41.592Z,12.21
2023-04-16T01:41:09.496Z,12.28
2023-04-16T01:43:39.033Z,11.97
2023-04-16T01:46:16.199Z,12.17
2023-04-16T01:48:44.756Z,11.86
2023-04-16T01:51:12.404Z,11.55
2023-04-16T01:53:40.005Z,11.68
2023-04-16T01:56:08.231Z,11.42
2023-04-16T01:58:36.816Z,11.41
2023-04-16T02:01:06.019Z,11.64
2023-04-16T02:03:34.682Z,11.22
2023-04-16T02:06:02.501Z,11.44
2023-04-16T02:08:30.184Z,11.66
2023-04-16T02:10:58.385Z,11.70
2023-04-16T02:13:27.122Z,11.43
2023-04-16T02:15:55.401Z,11.34
2023-04-16T02:18:52.488Z,11.41
2023-04-16T02:21:23.024Z,11.52
2023-04-16T02:23:52.110Z,11.45
2023-04-16T02:26:24.313Z,11.26
2023-04-16T02:28:52.291Z,11.29
2023-04-16T02:31:25.855Z,11.12
2023-04-16T02:33:53.541Z,11.09
2023-04-16T02:36:21.629Z,10.97
2023-04-16T02:38:49.383Z,11.20
2023-04-16T02:41:17.157Z,11.21
2023-04-16T02:43:45.050Z,11.17
2023-04-16T02:46:12.753Z,11.29
2023-04-16T02:48:41.119Z,11.26
2023-04-16T02:51:09.037Z,11.35
2023-04-16T02:53:36.636Z,11.34
2023-04-16T02:56:04.560Z,11.28
2023-04-16T02:58:32.065Z,11.19
2023-04-16T03:00:59.655Z,11.12
2023-04-16T03:03:27.695Z,10.96
2023-04-16T03:05:55.695Z,11.07
2023-04-16T03:08:23.492Z,11.13
2023-04-16T03:10:51.421Z,11.07
2023-04-16T03:13:19.123Z,11.01
2023-04-16T03:15:50.488Z,11.10
2023-04-16T03:18:18.266Z,11.16
2023-04-16T03:20:45.908Z,11.17
2023-04-16T03:23:13.423Z,11.47
2023-04-16T03:25:41.175Z,11.14
2023-04-16T03:28:10.231Z,10.90
2023-04-16T03:30:39.647Z,10.49
2023-04-16T03:33:08.779Z,10.74
2023-04-16T03:35:38.676Z,10.87
2023-04-16T03:38:06.626Z,11.01
2023-04-16T03:40:34.539Z,11.06
2023-04-16T03:43:02.464Z,10.93
2023-04-16T03:45:30.365Z,10.84
2023-04-16T03:48:02.163Z,10.94
2023-04-16T03:50:29.865Z,10.98
2023-04-16T03:52:57.694Z,11.38
2023-04-16T03:55:25.748Z,11.06
2023-04-16T03:57:53.669Z,11.21
2023-04-16T04:00:21.332Z,11.33
2023-04-16T04:02:59.846Z,11.23
2023-04-16T04:05:28.574Z,11.57
2023-04-16T04:07:56.115Z,11.64
2023-04-16T04:10:24.134Z,11.91
2023-04-16T04:12:52.345Z,11.95
2023-04-16T04:15:20.202Z,11.58
2023-04-16T04:17:48.357Z,11.83
2023-04-16T04:20:16.450Z,12.03
2023-04-16T04:22:46.537Z,11.91
2023-04-16T04:25:14.861Z,11.30
2023-04-16T04:27:42.823Z,11.30
2023-04-16T04:30:13.272Z,11.26
2023-04-16T04:32:42.561Z,11.14
2023-04-16T04:35:11.299Z,10.92
2023-04-16T04:37:39.266Z,10.77
2023-04-16T04:40:14.703Z,10.67
2023-04-16T04:42:42.312Z,10.67
2023-04-16T04:45:11.636Z,10.68
2023-04-16T04:47:39.253Z,10.63
2023-04-16T04:50:08.017Z,10.75
2023-04-16T04:52:36.041Z,10.74
2023-04-16T04:55:04.619Z,10.81
2023-04-16T04:57:32.456Z,10.60
2023-04-16T05:00:00.567Z,10.73
2023-04-16T05:02:33.644Z,11.06
2023-04-16T05:05:01.377Z,11.00
2023-04-16T05:07:29.133Z,10.92
2023-04-16T05:09:56.889Z,11.05
2023-04-16T05:12:24.802Z,11.02
2023-04-16T05:14:52.670Z,11.09
2023-04-16T05:17:21.113Z,11.08
2023-04-16T05:19:48.755Z,11.20
2023-04-16T05:22:19.317Z,11.29
2023-04-16T05:24:47.078Z,11.67
2023-04-16T05:27:15.434Z,11.52
2023-04-16T05:29:43.077Z,11.29
2023-04-16T05:32:11.043Z,11.33
2023-04-16T05:34:40.694Z,11.35
2023-04-16T05:37:08.514Z,11.31
2023-04-16T05:39:37.052Z,11.61
2023-04-16T05:42:04.875Z,11.73
2023-04-16T05:44:32.713Z,11.89
2023-04-16T05:47:00.286Z,11.58
2023-04-16T05:49:27.767Z,11.77
2023-04-16T05:51:55.519Z,11.79
2023-04-16T05:54:23.154Z,11.70
2023-04-16T05:56:50.689Z,11.99
2023-04-16T05:59:18.209Z,12.57
2023-04-16T06:01:45.726Z,12.57
2023-04-16T06:04:13.652Z,12.38
2023-04-16T06:06:41.353Z,12.68
2023-04-16T06:09:09.209Z,12.58
2023-04-16T06:11:37.226Z,12.36
2023-04-16T06:14:05.046Z,12.18
2023-04-16T06:16:32.840Z,12.36
2023-04-16T06:19:00.393Z,12.37
2023-04-16T06:21:28.853Z,12.38
2023-04-16T06:23:57.017Z,12.40
2023-04-16T06:26:24.576Z,12.24
2023-04-16T06:28:52.014Z,12.61
2023-04-16T06:31:21.753Z,12.79
2023-04-16T06:33:49.420Z,12.64
2023-04-16T06:36:16.996Z,12.82
2023-04-16T06:38:44.565Z,12.46
2023-04-16T06:41:13.771Z,12.89
2023-04-16T06:43:41.441Z,12.47
2023-04-16T06:46:09.200Z,12.55
2023-04-16T06:48:36.696Z,12.87
2023-04-16T06:51:04.420Z,13.11
2023-04-16T06:53:32.088Z,12.89
2023-04-16T06:55:59.749Z,12.87
2023-04-16T06:58:27.473Z,13.27
2023-04-16T07:00:55.285Z,13.68
2023-04-16T07:03:22.930Z,13.27
2023-04-16T07:05:50.741Z,13.30
2023-04-16T07:08:18.118Z,13.19
2023-04-16T07:10:45.656Z,13.26
2023-04-16T07:13:13.420Z,13.47
2023-04-16T07:15:41.083Z,13.53
2023-04-16T07:18:08.678Z,13.92
2023-04-16T07:20:36.528Z,14.09
2023-04-16T07:23:03.941Z,14.02
2023-04-16T07:25:31.808Z,14.51
2023-04-16T07:27:59.410Z,14.38
2023-04-16T07:30:32.933Z,14.78
2023-04-16T07:33:01.789Z,14.53
2023-04-16T07:35:30.433Z,14.39
2023-04-16T07:37:58.010Z,14.70
2023-04-16T07:40:25.572Z,14.48
2023-04-16T07:42:53.375Z,14.77
2023-04-16T07:45:20.901Z,14.78
2023-04-16T07:47:48.603Z,15.03
2023-04-16T07:50:16.527Z,14.83
2023-04-16T07:52:45.456Z,15.11
2023-04-16T07:55:12.979Z,15.08
2023-04-16T07:57:41.539Z,15.03
2023-04-16T08:00:09.651Z,15.78
2023-04-16T08:02:43.912Z,15.62
2023-04-16T08:05:12.614Z,15.49
2023-04-16T08:07:40.254Z,16.16
2023-04-16T08:10:08.621Z,15.66
2023-04-16T08:12:36.179Z,15.62
2023-04-16T08:15:03.938Z,15.89
2023-04-16T08:17:33.232Z,16.29
2023-04-16T08:20:00.749Z,16.12
2023-04-16T08:22:28.217Z,16.07
2023-04-16T08:24:55.816Z,16.73
2023-04-16T08:27:23.376Z,16.66
2023-04-16T08:29:51.128Z,17.04
2023-04-16T08:32:18.787Z,17.08
2023-04-16T08:34:46.596Z,17.24
2023-04-16T08:37:14.064Z,17.28
2023-04-16T08:39:41.841Z,17.53
2023-04-16T08:42:19.122Z,17.68
2023-04-16T08:44:49.630Z,17.54
2023-04-16T08:47:17.709Z,17.55
2023-04-16T08:49:48.917Z,17.58
2023-04-16T08:52:22.113Z,17.86
2023-04-16T08:55:12.161Z,17.99
2023-04-16T08:57:48.552Z,17.94
2023-04-16T09:00:16.727Z,17.89
2023-04-16T09:02:45.045Z,18.00
2023-04-16T09:05:17.190Z,17.75
2023-04-16T09:07:48.672Z,18.49
2023-04-16T09:10:16.688Z,18.01
2023-04-16T09:12:44.689Z,18.27
2023-04-16T09:15:14.035Z,18.37
2023-04-16T09:17:42.424Z,18.27
2023-04-16T09:20:11.033Z,18.23
2023-04-16T09:22:40.423Z,18.23
2023-04-16T09:25:08.518Z,18.48
2023-04-16T09:27:36.776Z,18.37
2023-04-16T09:30:24.549Z,18.57
2023-04-16T09:32:53.376Z,18.46
2023-04-16T09:35:21.633Z,17.98
2023-04-16T09:37:58.748Z,18.32
2023-04-16T09:40:27.789Z,18.60
2023-04-16T09:43:00.568Z,18.86
2023-04-16T09:45:32.248Z,18.76
2023-04-16T09:48:05.107Z,18.54
2023-04-16T09:50:32.719Z,18.93
2023-04-16T09:53:03.667Z,18.99
2023-04-16T09:55:32.797Z,19.50
2023-04-16T09:58:01.303Z,19.28
2023-04-16T10:00:30.646Z,19.41
2023-04-16T10:03:05.878Z,19.35
2023-04-16T10:05:33.812Z,18.66
2023-04-16T10:08:02.206Z,18.88
2023-04-16T10:10:30.153Z,18.64
2023-04-16T10:12:58.219Z,18.83
2023-04-16T10:15:26.131Z,19.06
2023-04-16T10:17:54.201Z,19.57
2023-04-16T10:20:23.930Z,19.29
2023-04-16T10:22:52.160Z,19.33
2023-04-16T10:25:20.235Z,19.51
2023-04-16T10:27:48.205Z,19.05
2023-04-16T10:30:16.875Z,19.35
2023-04-16T10:32:46.495Z,19.71
2023-04-16T10:35:21.476Z,20.14
2023-04-16T10:37:49.281Z,20.56
2023-04-16T10:40:27.737Z,19.80
2023-04-16T10:42:59.567Z,19.86
2023-04-16T10:45:38.113Z,20.24
2023-04-16T10:48:10.117Z,20.20
2023-04-16T10:50:38.008Z,20.13
2023-04-16T10:53:27.286Z,20.15
2023-04-16T10:56:04.774Z,20.50
2023-04-16T10:58:36.321Z,20.07
2023-04-16T11:01:34.174Z,19.48
2023-04-16T11:04:22.200Z,19.00
2023-04-16T11:07:14.715Z,19.20
2023-04-16T11:10:03.201Z,19.30
2023-04-16T11:12:40.263Z,19.64
2023-04-16T11:15:10.530Z,19.80
2023-04-16T11:17:40.556Z,20.17
2023-04-16T11:20:20.865Z,20.08
2023-04-16T11:22:54.995Z,20.40
2023-04-16T11:25:23.955Z,20.43
2023-04-16T11:27:52.326Z,20.86
2023-04-16T11:30:29.649Z,20.51
2023-04-16T11:32:57.462Z,20.12
2023-04-16T11:35:25.307Z,20.39
2023-04-16T11:37:57.326Z,19.78
2023-04-16T11:40:26.176Z,20.20
2023-04-16T11:42:53.733Z,19.82
2023-04-16T11:45:21.682Z,19.84
2023-04-16T11:47:56.839Z,20.59
2023-04-16T11:50:26.296Z,20.42
2023-04-16T11:52:55.868Z,20.96
2023-04-16T11:55:24.537Z,21.15
2023-04-16T11:57:52.408Z,21.02
2023-04-16T12:00:22.506Z,20.80
2023-04-16T12:02:54.589Z,20.30
2023-04-16T12:05:40.802Z,20.19
2023-04-16T12:08:10.240Z,19.91
2023-04-16T12:10:54.969Z,20.74
2023-04-16T12:13:23.365Z,21.00
2023-04-16T12:15:52.868Z,20.88
2023-04-16T12:18:23.071Z,21.15
2023-04-16T12:20:51.761Z,20.86
2023-04-16T12:23:29.587Z,21.01
2023-04-16T12:26:02.371Z,21.14
2023-04-16T12:28:36.800Z,20.88
2023-04-16T12:31:05.874Z,20.73
2023-04-16T12:33:34.832Z,20.73
2023-04-16T12:36:17.864Z,20.65
2023-04-16T12:38:46.118Z,20.88
2023-04-16T12:41:17.052Z,21.31
2023-04-16T12:43:45.377Z,20.81
2023-04-16T12:46:12.984Z,20.82
2023-04-16T12:48:41.773Z,21.11
2023-04-16T12:51:11.911Z,21.40
2023-04-16T12:56:07.426Z,21.91
2023-04-16T12:58:35.292Z,21.43
2023-04-16T13:01:02.790Z,20.74
2023-04-16T13:03:31.235Z,20.08
2023-04-16T13:05:58.968Z,20.35
2023-04-16T13:08:26.570Z,20.30
2023-04-16T13:10:53.979Z,20.58
2023-04-16T13:13:21.402Z,20.59
2023-04-16T13:15:48.827Z,20.49
2023-04-16T13:18:16.415Z,20.86
2023-04-16T13:20:44.273Z,21.17
2023-04-16T13:23:12.092Z,21.62
2023-04-16T13:25:39.554Z,21.69
2023-04-16T13:28:07.261Z,21.72
2023-04-16T13:30:35.068Z,21.26
2023-04-16T13:33:02.642Z,21.30
2023-04-16T13:35:30.962Z,21.29
2023-04-16T13:38:01.823Z,20.91
2023-04-16T13:40:29.320Z,21.25
2023-04-16T13:42:56.820Z,21.21
2023-04-16T13:45:24.506Z,21.14
2023-04-16T13:47:52.035Z,20.69
2023-04-16T13:50:19.759Z,20.91
2023-04-16T13:52:47.446Z,20.97
2023-04-16T13:55:18.146Z,20.86
2023-04-16T13:58:04.519Z,20.95
2023-04-16T14:00:34.699Z,20.29
2023-04-16T14:03:02.546Z,20.57
2023-04-16T14:05:30.149Z,20.60
2023-04-16T14:07:57.787Z,20.84
2023-04-16T14:10:25.450Z,20.89
2023-04-16T14:12:53.692Z,20.71
2023-04-16T14:15:21.312Z,19.99
2023-04-16T14:17:48.922Z,19.82
2023-04-16T14:20:16.562Z,20.05
2023-04-16T14:22:44.996Z,19.92
2023-04-16T14:25:13.137Z,19.75
2023-04-16T14:27:41.571Z,19.84
2023-04-16T14:30:10.029Z,20.03
2023-04-16T14:32:37.859Z,20.10
2023-04-16T14:35:06.532Z,19.89
2023-04-16T14:37:36.006Z,19.85
2023-04-16T14:40:09.040Z,19.43
2023-04-16T14:42:37.763Z,19.64
2023-04-16T14:45:06.893Z,19.52
2023-04-16T14:47:35.675Z,19.45
2023-04-16T14:50:03.860Z,19.59
2023-04-16T14:52:32.273Z,19.57
2023-04-16T14:54:59.902Z,19.61
2023-04-16T14:57:27.588Z,19.64
2023-04-16T14:59:55.011Z,19.86
2023-04-16T15:02:22.753Z,19.56
2023-04-16T15:04:50.427Z,19.31
2023-04-16T15:07:18.001Z,19.35
2023-04-16T15:09:45.545Z,19.38
2023-04-16T15:12:13.212Z,19.15
2023-04-16T15:14:41.253Z,19.09
2023-04-16T15:17:09.715Z,19.27
2023-04-16T15:19:37.302Z,19.36
2023-04-16T15:22:04.970Z,19.09
2023-04-16T15:24:32.671Z,19.32
2023-04-16T15:27:02.275Z,19.68
2023-04-16T15:29:29.818Z,19.19
2023-04-16T15:31:57.394Z,19.20
2023-04-16T15:34:24.875Z,19.50
2023-04-16T15:36:52.400Z,19.45
2023-04-16T15:39:21.054Z,19.15
2023-04-16T15:42:00.753Z,19.28
2023-04-16T15:44:31.075Z,19.34
2023-04-16T15:46:59.043Z,19.32
2023-04-16T15:49:26.934Z,19.36
2023-04-16T15:51:55.699Z,19.10
2023-04-16T15:54:23.773Z,19.25
2023-04-16T15:56:51.658Z,19.27
2023-04-16T15:59:21.181Z,19.53
2023-04-16T16:01:49.369Z,19.40
2023-04-16T16:04:17.251Z,19.26
2023-04-16T16:06:47.936Z,19.10
2023-04-16T16:09:15.695Z,19.24
2023-04-16T16:11:43.566Z,18.65
2023-04-16T16:14:11.444Z,18.70
2023-04-16T16:16:40.028Z,18.74
2023-04-16T16:19:07.869Z,18.67
2023-04-16T16:21:35.544Z,18.53
2023-04-16T16:24:03.192Z,18.49
2023-04-16T16:26:31.262Z,18.62
2023-04-16T16:28:58.821Z,18.91
2023-04-16T16:31:27.154Z,18.81
2023-04-16T16:33:54.983Z,18.50
2023-04-16T16:36:26.863Z,18.10
2023-04-16T16:38:55.153Z,18.12
2023-04-16T16:41:22.914Z,18.18
2023-04-16T16:43:51.077Z,18.50
2023-04-16T16:46:18.832Z,18.29
2023-04-16T16:48:46.581Z,18.30
2023-04-16T16:51:16.907Z,18.40
2023-04-16T16:53:46.665Z,18.24
2023-04-16T16:56:14.452Z,18.02
2023-04-16T16:58:42.056Z,18.02
2023-04-16T17:01:10.408Z,17.80
2023-04-16T17:03:38.086Z,18.07
2023-04-16T17:06:05.974Z,17.70
2023-04-16T17:08:33.827Z,17.77
2023-04-16T17:11:05.104Z,17.61
2023-04-16T17:13:32.842Z,17.63
2023-04-16T17:16:01.349Z,17.70
2023-04-16T17:18:29.114Z,17.33
2023-04-16T17:20:56.760Z,17.72
2023-04-16T17:23:24.818Z,17.20
2023-04-16T17:25:52.313Z,17.24
2023-04-16T17:28:20.925Z,16.60
2023-04-16T17:30:53.248Z,16.75
2023-04-16T17:33:21.085Z,16.80
2023-04-16T17:35:48.656Z,17.00
2023-04-16T17:38:16.172Z,17.22
2023-04-16T17:40:43.604Z,17.16
2023-04-16T17:43:11.104Z,17.20
2023-04-16T17:45:38.610Z,16.80
2023-04-16T17:48:06.498Z,16.84
2023-04-16T17:50:34.233Z,17.10
2023-04-16T17:53:03.865Z,17.34
2023-04-16T17:55:31.766Z,17.32
2023-04-16T17:58:00.508Z,17.15
2023-04-16T18:00:28.132Z,17.07
2023-04-16T18:02:57.023Z,17.32
2023-04-16T18:05:24.784Z,17.33
2023-04-16T18:07:53.435Z,17.24
2023-04-16T18:10:22.759Z,17.59
2023-04-16T18:12:50.204Z,17.23
2023-04-16T18:15:17.858Z,17.29
2023-04-16T18:17:45.437Z,17.30
2023-04-16T18:20:16.757Z,17.34
2023-04-16T18:22:44.602Z,17.13
2023-04-16T18:25:12.310Z,17.18
2023-04-16T18:27:39.947Z,16.95
2023-04-16T18:30:17.498Z,16.99
2023-04-16T18:33:09.875Z,17.04
2023-04-16T18:35:34.892Z,16.84
2023-04-16T18:38:02.884Z,16.81
2023-04-16T18:40:34.353Z,16.92
2023-04-16T18:43:02.846Z,17.04
2023-04-16T18:45:31.203Z,17.11
2023-04-16T18:48:03.694Z,17.34
2023-04-16T18:50:31.165Z,16.56
2023-04-16T18:52:58.727Z,16.36
2023-04-16T18:55:26.191Z,16.37
2023-04-16T18:57:55.091Z,17.15
2023-04-16T19:00:22.828Z,16.81
2023-04-16T19:02:50.642Z,16.97
2023-04-16T19:05:18.749Z,16.51
2023-04-16T19:07:46.301Z,16.75
2023-04-16T19:10:14.011Z,17.17
2023-04-16T19:12:41.515Z,17.03
2023-04-16T19:15:09.444Z,16.19
2023-04-16T19:17:37.094Z,16.12
2023-04-16T19:20:10.565Z,16.39
2023-04-16T19:22:38.603Z,16.12
2023-04-16T19:25:07.242Z,15.79
2023-04-16T19:27:35.035Z,15.82
2023-04-16T19:30:03.598Z,15.69
2023-04-16T19:32:32.081Z,15.87
2023-04-16T19:34:59.800Z,15.76
2023-04-16T19:37:27.630Z,15.49
2023-04-16T19:39:55.309Z,15.39
2023-04-16T19:42:22.998Z,15.48
2023-04-16T19:44:50.738Z,15.43
2023-04-16T19:47:19.956Z,15.49
2023-04-16T19:49:47.597Z,15.52
2023-04-16T19:52:16.437Z,15.74
2023-04-16T19:54:44.788Z,15.51
2023-04-16T19:57:12.244Z,15.38
2023-04-16T19:59:39.774Z,15.24
2023-04-16T20:02:07.353Z,15.60
2023-04-16T20:04:35.975Z,15.78
2023-04-16T20:07:03.678Z,15.67
2023-04-16T20:09:31.140Z,15.45
2023-04-16T20:11:58.881Z,15.42
2023-04-16T20:14:26.408Z,15.37
2023-04-16T20:16:53.931Z,15.15
2023-04-16T20:19:22.140Z,15.22
2023-04-16T20:21:49.670Z,15.43
2023-04-16T20:24:17.159Z,15.31
2023-04-16T20:26:44.610Z,14.98
2023-04-16T20:29:12.523Z,15.43
2023-04-16T20:31:42.757Z,15.21
2023-04-16T20:34:10.259Z,15.41
2023-04-16T20:36:37.698Z,15.34
2023-04-16T20:39:08.208Z,15.24
2023-04-16T20:41:36.252Z,15.01
2023-04-16T20:44:05.638Z,15.08
2023-04-16T20:46:36.225Z,15.21
2023-04-16T20:49:03.692Z,15.14
2023-04-16T20:51:31.619Z,15.12
2023-04-16T20:53:59.018Z,15.03
2023-04-16T20:56:26.585Z,15.08
2023-04-16T20:58:54.064Z,14.94
2023-04-16T21:01:21.571Z,15.10
2023-04-16T21:03:49.172Z,15.21
2023-04-16T21:06:17.816Z,15.03
2023-04-16T21:08:45.406Z,15.01
2023-04-16T21:11:13.192Z,15.05
2023-04-16T21:13:40.528Z,15.00
2023-04-16T21:16:09.913Z,14.78
2023-04-16T21:18:38.291Z,14.66
2023-04-16T21:21:06.107Z,14.75
2023-04-16T21:23:33.851Z,14.73
2023-04-16T21:26:08.874Z,14.75
2023-04-16T21:28:36.396Z,14.69
2023-04-16T21:31:04.194Z,14.53
2023-04-16T21:33:34.831Z,14.36
2023-04-16T21:36:02.412Z,14.32
2023-04-16T21:38:30.094Z,14.27
2023-04-16T21:40:57.481Z,14.29
2023-04-16T21:43:26.792Z,14.18
2023-04-16T21:45:54.934Z,14.03
2023-04-16T21:48:23.225Z,13.84
2023-04-16T21:51:06.829Z,13.99
2023-04-16T21:53:40.174Z,13.76
2023-04-16T21:56:08.195Z,13.77
2023-04-16T21:58:39.532Z,13.69
2023-04-16T22:01:09.544Z,13.74
2023-04-16T22:03:40.747Z,13.82
2023-04-16T22:06:11.713Z,13.96
2023-04-16T22:08:42.153Z,13.82
2023-04-16T22:11:10.249Z,13.68
2023-04-16T22:13:42.478Z,13.62
2023-04-16T22:16:11.734Z,13.58
2023-04-16T22:18:41.120Z,13.61
2023-04-16T22:21:08.551Z,13.74
2023-04-16T22:23:35.982Z,13.62
2023-04-16T22:26:04.256Z,13.62
2023-04-16T22:28:31.768Z,13.47
2023-04-16T22:30:59.503Z,13.26
2023-04-16T22:33:30.587Z,13.42
2023-04-16T22:36:00.240Z,13.32
2023-04-16T22:38:27.766Z,13.28
2023-04-16T22:40:55.388Z,13.20
2023-04-16T22:43:23.234Z,13.06
2023-04-16T22:46:00.212Z,13.16
2023-04-16T22:48:28.084Z,12.97
2023-04-16T22:50:55.573Z,13.19
2023-04-16T22:53:23.153Z,13.09
2023-04-16T22:55:51.208Z,13.05
2023-04-16T22:58:18.829Z,12.81
2023-04-16T23:00:47.713Z,12.75
2023-04-16T23:03:15.877Z,12.65
2023-04-16T23:05:43.373Z,12.61
2023-04-16T23:08:11.049Z,12.74
2023-04-16T23:10:38.893Z,12.78
2023-04-16T23:13:06.485Z,12.67
2023-04-16T23:15:34.260Z,12.63
2023-04-16T23:18:02.049Z,12.62
2023-04-16T23:20:29.611Z,12.61
2023-04-16T23:22:57.489Z,12.52
2023-04-16T23:25:25.725Z,12.52
2023-04-16T23:27:53.272Z,12.57
2023-04-16T23:30:20.926Z,12.53
2023-04-16T23:32:49.094Z,12.51
2023-04-16T23:35:22.808Z,12.29
2023-04-16T23:37:50.979Z,12.29
2023-04-16T23:40:18.559Z,12.33
2023-04-16T23:42:46.091Z,12.36
2023-04-16T23:45:13.721Z,12.31
2023-04-16T23:47:41.473Z,12.51
2023-04-16T23:50:09.084Z,12.55
2023-04-16T23:52:36.583Z,12.58
2023-04-16T23:55:04.406Z,12.52
2023-04-16T23:57:31.822Z,12.48
2023-04-16T23:59:59.743Z,12.30
